Time;durP1;ratioP1;P1;durP2;ratioP2;P2;SDS_P1;SDS_P2;PMS_P1;PMS_P2;Temp;Humidity;BMP_temperature;BMP_pressure;BME280_temperature;BME280_humidity;BME280_pressure;Samples;Min_cycle;Max_cycle;Signal;HPM_P1;HPM_P2
2022/03/27 00:00:52;;;;;;;19.77;11.88;;;10.70;64.20;;;;;;9183433;19;20384;-66
2022/03/27 00:03:57;;;;;;;18.42;10.93;;;10.70;64.30;;;;;;9181792;19;20685;-66
2022/03/27 00:07:05;;;;;;;18.73;10.52;;;10.70;64.30;;;;;;9180827;19;20049;-66
2022/03/27 00:10:11;;;;;;;20.45;11.43;;;10.70;64.50;;;;;;9180070;19;20021;-68
2022/03/27 00:13:16;;;;;;;18.63;10.75;;;10.70;64.50;;;;;;9182727;19;20336;-68
2022/03/27 00:16:22;;;;;;;22.42;10.63;;;10.70;64.50;;;;;;9179116;19;20829;-68
2022/03/27 00:19:27;;;;;;;16.48;9.43;;;10.70;64.60;;;;;;9176762;19;20534;-68
2022/03/27 00:22:36;;;;;;;14.15;8.35;;;10.70;64.60;;;;;;9182667;19;20471;-67
2022/03/27 00:25:43;;;;;;;16.17;8.55;;;10.70;64.70;;;;;;9183179;19;20006;-67
2022/03/27 00:28:49;;;;;;;14.80;8.05;;;10.70;64.60;;;;;;9185345;19;20010;-68
2022/03/27 00:31:54;;;;;;;16.60;8.80;;;10.60;64.60;;;;;;9185597;19;20488;-68
2022/03/27 00:34:59;;;;;;;15.75;9.07;;;10.60;64.70;;;;;;9187675;19;20391;-66
2022/03/27 00:38:08;;;;;;;17.88;8.85;;;10.60;64.70;;;;;;9188287;19;20029;-66
2022/03/27 00:41:14;;;;;;;14.02;7.97;;;10.60;64.80;;;;;;9187036;19;20019;-67
2022/03/27 00:44:19;;;;;;;14.25;8.13;;;10.50;64.70;;;;;;9187545;19;20047;-68
2022/03/27 00:47:24;;;;;;;12.90;8.63;;;10.50;64.80;;;;;;9190662;19;20073;-68
2022/03/27 00:50:30;;;;;;;16.80;7.88;;;10.50;64.80;;;;;;9188613;19;20014;-67
2022/03/27 00:53:38;;;;;;;14.90;8.63;;;10.50;64.80;;;;;;9186543;19;20051;-67
2022/03/27 00:56:43;;;;;;;15.07;8.55;;;10.40;64.90;;;;;;9187216;19;20029;-66
2022/03/27 00:59:48;;;;;;;15.20;8.15;;;10.40;64.90;;;;;;9186389;19;20022;-65
2022/03/27 01:02:55;;;;;;;15.60;8.25;;;10.40;65.00;;;;;;9185725;19;20023;-68
2022/03/27 01:06:00;;;;;;;11.98;7.18;;;10.30;64.90;;;;;;9188265;19;20013;-68
2022/03/27 01:12:38;;;;;;;13.13;7.57;;;10.30;65.00;;;;;;9187789;19;20102;-68
2022/03/27 01:15:46;;;;;;;10.82;7.10;;;10.30;65.00;;;;;;9187980;19;20014;-68
2022/03/27 01:18:51;;;;;;;10.73;6.70;;;10.30;65.00;;;;;;9185625;19;20332;-66
2022/03/27 01:22:00;;;;;;;11.35;7.18;;;10.30;64.90;;;;;;9189747;19;20029;-67
2022/03/27 01:25:06;;;;;;;11.48;6.97;;;10.30;65.10;;;;;;9187151;19;20392;-67
2022/03/27 01:28:12;;;;;;;11.13;6.97;;;10.20;64.90;;;;;;9185866;19;20466;-68
2022/03/27 01:31:18;;;;;;;11.90;7.43;;;10.20;64.90;;;;;;9187830;19;20025;-67
2022/03/27 01:34:23;;;;;;;13.02;7.72;;;10.20;64.90;;;;;;9188575;19;20052;-65
2022/03/27 01:37:30;;;;;;;13.10;6.95;;;10.20;65.00;;;;;;9184478;19;20019;-66
2022/03/27 01:40:36;;;;;;;11.57;7.15;;;10.10;65.00;;;;;;9180535;19;20022;-66
2022/03/27 01:43:41;;;;;;;10.75;7.07;;;10.10;64.90;;;;;;9180545;19;20018;-68
2022/03/27 01:46:46;;;;;;;11.60;7.70;;;10.10;64.90;;;;;;9185078;19;20398;-66
2022/03/27 01:49:52;;;;;;;11.63;7.93;;;10.00;64.90;;;;;;9185291;19;20046;-68
2022/03/27 01:52:59;;;;;;;13.77;7.80;;;10.00;64.80;;;;;;9183591;19;20015;-66
2022/03/27 01:56:05;;;;;;;11.70;7.57;;;10.00;65.00;;;;;;9185017;19;20353;-68
2022/03/27 01:59:11;;;;;;;12.38;7.88;;;9.90;64.90;;;;;;9185259;19;20082;-67
2022/03/27 02:02:18;;;;;;;12.98;7.90;;;9.90;64.90;;;;;;9184482;19;20045;-67
2022/03/27 02:05:23;;;;;;;11.32;7.55;;;9.90;65.00;;;;;;9186791;19;20018;-66
2022/03/27 02:08:31;;;;;;;12.20;7.35;;;9.80;64.90;;;;;;9183509;19;20027;-67
2022/03/27 02:11:36;;;;;;;12.18;7.35;;;9.80;64.90;;;;;;9179158;19;20015;-68
2022/03/27 02:14:42;;;;;;;12.77;7.93;;;9.80;64.90;;;;;;9180221;19;20022;-66
2022/03/27 02:17:47;;;;;;;12.20;7.15;;;9.80;64.90;;;;;;9178848;19;20021;-66
2022/03/27 02:20:52;;;;;;;11.88;7.63;;;9.80;65.00;;;;;;9176302;19;20018;-65
2022/03/27 02:24:03;;;;;;;11.15;7.32;;;9.70;64.90;;;;;;9182620;19;20021;-69
2022/03/27 02:27:08;;;;;;;13.10;7.95;;;9.70;65.00;;;;;;9184474;19;20023;-66
2022/03/27 02:30:15;;;;;;;10.98;7.47;;;9.70;64.90;;;;;;9182499;19;20018;-66
2022/03/27 02:33:20;;;;;;;11.05;6.47;;;9.60;65.00;;;;;;9186151;19;20827;-67
2022/03/27 02:36:25;;;;;;;13.98;8.00;;;9.60;65.00;;;;;;9182522;19;20030;-67
2022/03/27 02:39:33;;;;;;;11.52;7.65;;;9.60;65.00;;;;;;9179116;19;20015;-67
2022/03/27 02:42:38;;;;;;;10.38;7.40;;;9.50;65.00;;;;;;9179778;19;20015;-66
2022/03/27 02:45:43;;;;;;;10.15;7.38;;;9.50;65.10;;;;;;9178875;19;20026;-66
2022/03/27 02:48:48;;;;;;;12.13;7.88;;;9.50;65.10;;;;;;9177262;19;20019;-67
2022/03/27 02:51:53;;;;;;;12.73;8.02;;;9.50;65.20;;;;;;9178506;19;20025;-66
2022/03/27 02:55:01;;;;;;;13.40;8.05;;;9.40;65.00;;;;;;9175694;19;20032;-66
2022/03/27 02:58:06;;;;;;;14.20;7.55;;;9.40;65.20;;;;;;9177182;19;20033;-64
2022/03/27 03:01:12;;;;;;;15.57;8.32;;;9.30;65.20;;;;;;9178429;19;20019;-67
2022/03/27 03:04:17;;;;;;;15.10;8.38;;;9.30;65.20;;;;;;9179426;19;20014;-67
2022/03/27 03:07:23;;;;;;;11.60;7.72;;;9.20;65.20;;;;;;9176403;19;20019;-68
2022/03/27 03:10:31;;;;;;;15.88;8.18;;;9.20;65.20;;;;;;9176675;19;20022;-67
2022/03/27 03:13:37;;;;;;;12.35;7.93;;;9.20;66.00;;;;;;9178263;19;20463;-68
2022/03/27 03:16:42;;;;;;;10.98;7.15;;;9.10;65.30;;;;;;9176010;19;20043;-66
2022/03/27 03:19:47;;;;;;;11.75;7.60;;;9.10;65.30;;;;;;9170078;19;20348;-65
2022/03/27 03:22:53;;;;;;;17.25;8.30;;;9.10;65.30;;;;;;9178826;19;20026;-66
2022/03/27 03:26:01;;;;;;;14.18;7.75;;;9.10;65.30;;;;;;9177340;19;20014;-67
2022/03/27 03:29:13;;;;;;;14.27;8.70;;;9.00;65.30;;;;;;9178033;19;20014;-68
2022/03/27 03:32:24;;;;;;;14.00;8.73;;;9.00;65.30;;;;;;9178278;19;20017;-67
2022/03/27 03:35:29;;;;;;;15.15;8.00;;;9.00;65.30;;;;;;9177580;19;20368;-67
2022/03/27 03:38:46;;;;;;;14.85;8.05;;;8.90;65.30;;;;;;9177319;19;20030;-68
2022/03/27 03:41:54;;;;;;;14.20;8.40;;;8.90;65.30;;;;;;9179561;19;20029;-67
2022/03/27 03:45:01;;;;;;;14.32;7.75;;;8.90;65.40;;;;;;9176002;19;20025;-67
2022/03/27 03:48:06;;;;;;;18.90;8.52;;;8.80;65.40;;;;;;9176237;19;20018;-65
2022/03/27 03:51:12;;;;;;;16.45;7.57;;;8.80;65.40;;;;;;9172539;19;20126;-66
2022/03/27 03:54:17;;;;;;;14.55;8.00;;;8.70;65.40;;;;;;9175933;19;20022;-67
2022/03/27 03:57:25;;;;;;;13.98;7.68;;;8.70;65.40;;;;;;9177520;19;20014;-66
2022/03/27 04:00:30;;;;;;;13.02;8.15;;;8.70;65.50;;;;;;9172488;19;20018;-66
2022/03/27 04:03:35;;;;;;;15.48;8.85;;;8.60;65.50;;;;;;9170613;19;20018;-66
2022/03/27 04:06:41;;;;;;;12.93;8.00;;;8.60;65.50;;;;;;9170847;19;20086;-67
2022/03/27 04:09:46;;;;;;;14.52;8.32;;;8.60;65.50;;;;;;9172993;19;20014;-67
2022/03/27 04:12:53;;;;;;;13.45;8.05;;;8.60;65.50;;;;;;9171654;19;20014;-67
2022/03/27 04:15:58;;;;;;;16.65;8.07;;;8.50;65.60;;;;;;9170501;19;20037;-66
2022/03/27 04:19:04;;;;;;;13.30;8.32;;;8.50;65.50;;;;;;9165761;19;20022;-66
2022/03/27 04:22:09;;;;;;;15.40;8.35;;;8.40;65.50;;;;;;9170954;19;20034;-66
2022/03/27 04:25:15;;;;;;;13.18;8.10;;;8.40;65.50;;;;;;9171661;19;20025;-65
2022/03/27 04:28:23;;;;;;;12.25;8.05;;;8.40;65.70;;;;;;9169470;19;20025;-66
2022/03/27 04:31:28;;;;;;;18.95;9.10;;;8.30;65.60;;;;;;9169847;19;20019;-67
2022/03/27 04:34:34;;;;;;;14.75;8.13;;;8.30;65.60;;;;;;9170509;19;20024;-66
2022/03/27 04:37:42;;;;;;;12.68;8.23;;;8.30;65.60;;;;;;9170690;19;20019;-66
2022/03/27 04:40:50;;;;;;;16.00;8.15;;;8.20;65.70;;;;;;9173265;19;20021;-66
2022/03/27 04:43:57;;;;;;;16.42;8.73;;;8.10;65.60;;;;;;9168713;19;20419;-65
2022/03/27 04:47:02;;;;;;;12.90;8.15;;;8.10;65.70;;;;;;9168957;19;20014;-65
2022/03/27 04:50:09;;;;;;;12.95;8.30;;;8.10;65.70;;;;;;9169634;19;20018;-65
2022/03/27 04:53:14;;;;;;;14.00;7.72;;;8.00;65.70;;;;;;9169412;19;20015;-66
2022/03/27 04:56:20;;;;;;;16.00;8.70;;;8.00;65.70;;;;;;9168280;19;20044;-67
2022/03/27 04:59:28;;;;;;;12.73;8.48;;;8.00;65.80;;;;;;9172336;19;20026;-66
2022/03/27 05:02:33;;;;;;;13.65;8.77;;;7.90;65.80;;;;;;9173196;19;20388;-66
2022/03/27 05:05:38;;;;;;;14.75;8.30;;;7.90;65.80;;;;;;9174850;19;20018;-65
2022/03/27 05:08:44;;;;;;;18.50;8.98;;;7.80;65.70;;;;;;9171223;19;20368;-66
2022/03/27 05:11:49;;;;;;;16.20;8.93;;;7.80;65.80;;;;;;9172550;19;21482;-65
2022/03/27 05:14:56;;;;;;;15.68;8.75;;;7.70;65.80;;;;;;9183184;19;20018;-67
2022/03/27 05:18:06;;;;;;;17.35;8.73;;;7.70;65.90;;;;;;9183709;19;20835;-64
2022/03/27 05:21:11;;;;;;;17.85;9.63;;;7.70;65.90;;;;;;9177190;19;20043;-65
2022/03/27 05:24:16;;;;;;;17.50;9.82;;;7.60;66.00;;;;;;9183723;19;20051;-67
2022/03/27 05:27:22;;;;;;;19.10;9.02;;;7.60;66.00;;;;;;9181928;19;20015;-69
2022/03/27 05:30:31;;;;;;;15.82;9.13;;;7.60;66.10;;;;;;9180325;19;20023;-66
2022/03/27 05:33:36;;;;;;;16.23;8.93;;;7.60;66.20;;;;;;9181752;19;20563;-67
2022/03/27 05:36:41;;;;;;;14.98;8.60;;;7.60;66.90;;;;;;9182333;19;20054;-65
2022/03/27 05:39:46;;;;;;;13.07;8.38;;;7.50;66.20;;;;;;9180467;19;20518;-67
2022/03/27 05:42:52;;;;;;;13.85;8.32;;;7.50;66.30;;;;;;9180252;19;20479;-66
2022/03/27 05:45:59;;;;;;;12.18;7.53;;;7.50;66.40;;;;;;9180311;19;20010;-64
2022/03/27 05:49:11;;;;;;;18.58;8.48;;;7.50;66.50;;;;;;9180662;19;20019;-67
2022/03/27 05:52:17;;;;;;;18.45;8.60;;;7.50;66.50;;;;;;9179715;19;20018;-68
2022/03/27 05:55:23;;;;;;;17.27;9.32;;;7.50;66.50;;;;;;9181608;19;20010;-65
2022/03/27 05:58:28;;;;;;;15.13;9.27;;;7.60;67.20;;;;;;9181218;19;20496;-66
2022/03/27 06:01:35;;;;;;;19.48;10.10;;;7.60;66.70;;;;;;9180530;19;20018;-67
2022/03/27 06:04:41;;;;;;;16.80;9.82;;;7.60;66.80;;;;;;9178957;19;20015;-66
2022/03/27 06:07:47;;;;;;;21.30;9.98;;;7.60;66.70;;;;;;9177934;19;20014;-67
2022/03/27 06:10:52;;;;;;;21.20;10.32;;;7.60;66.80;;;;;;9181314;19;20495;-66
2022/03/27 06:13:57;;;;;;;20.50;10.18;;;7.70;66.80;;;;;;9180320;19;20014;-66
2022/03/27 06:17:06;;;;;;;21.60;11.00;;;7.70;66.90;;;;;;9181437;19;20474;-65
2022/03/27 06:20:13;;;;;;;26.95;10.88;;;7.70;67.00;;;;;;9179869;19;20007;-67
2022/03/27 06:23:18;;;;;;;18.90;9.52;;;7.70;67.00;;;;;;9179500;19;20029;-65
2022/03/27 06:26:23;;;;;;;18.63;9.90;;;7.70;66.90;;;;;;9181199;19;20029;-67
2022/03/27 06:29:28;;;;;;;32.20;9.75;;;7.80;67.00;;;;;;9181062;19;20352;-67
2022/03/27 06:32:36;;;;;;;24.50;9.55;;;7.80;67.10;;;;;;9181372;19;20543;-66
2022/03/27 06:35:41;;;;;;;23.10;9.30;;;7.80;67.10;;;;;;9182993;19;20022;-66
2022/03/27 06:38:52;;;;;;;27.50;10.27;;;7.80;67.10;;;;;;9185888;19;20015;-64
2022/03/27 06:41:57;;;;;;;19.02;8.32;;;7.80;67.10;;;;;;9185766;19;20542;-68
2022/03/27 06:45:02;;;;;;;30.02;8.55;;;7.90;67.20;;;;;;9178276;19;20022;-66
2022/03/27 06:48:10;;;;;;;20.23;9.07;;;7.90;67.20;;;;;;9185100;19;20006;-65
2022/03/27 06:51:15;;;;;;;23.75;8.82;;;7.90;67.30;;;;;;9181853;19;20010;-67
2022/03/27 06:54:21;;;;;;;24.23;8.93;;;7.90;67.30;;;;;;9183675;19;20018;-64
2022/03/27 06:57:27;;;;;;;27.15;9.98;;;7.90;67.30;;;;;;9182832;19;20336;-66
2022/03/27 07:03:53;;;;;;;23.05;8.40;;;7.90;67.30;;;;;;9180332;19;20026;-65
2022/03/27 07:07:00;;;;;;;23.40;10.70;;;7.90;67.30;;;;;;9177441;19;20467;-66
2022/03/27 07:10:05;;;;;;;26.00;8.52;;;7.90;67.30;;;;;;9177988;19;20091;-64
2022/03/27 07:13:12;;;;;;;24.48;8.52;;;7.90;67.30;;;;;;9172836;19;20361;-66
2022/03/27 07:16:17;;;;;;;26.00;9.13;;;7.90;67.40;;;;;;9175401;19;20006;-66
2022/03/27 07:19:25;;;;;;;22.10;8.32;;;7.90;67.40;;;;;;9172754;19;20018;-67
2022/03/27 07:22:30;;;;;;;25.95;9.13;;;7.90;67.50;;;;;;9173224;19;20022;-65
2022/03/27 07:25:38;;;;;;;22.42;9.68;;;7.90;67.40;;;;;;9174778;19;20029;-65
2022/03/27 07:28:43;;;;;;;23.10;8.73;;;7.90;67.50;;;;;;9176468;19;20375;-65
2022/03/27 07:31:49;;;;;;;26.27;8.90;;;8.00;67.50;;;;;;9175938;19;20029;-67
2022/03/27 07:35:01;;;;;;;22.67;8.25;;;8.00;67.60;;;;;;9180986;19;20022;-66
2022/03/27 07:38:07;;;;;;;27.83;9.65;;;8.00;67.60;;;;;;9180991;19;20025;-65
2022/03/27 07:41:12;;;;;;;28.73;9.65;;;8.00;67.50;;;;;;9180344;19;20028;-67
2022/03/27 07:44:17;;;;;;;27.33;9.27;;;8.10;67.60;;;;;;9180433;19;20010;-68
2022/03/27 07:47:22;;;;;;;34.83;9.88;;;8.10;67.60;;;;;;9180294;19;20115;-67
2022/03/27 07:50:32;;;;;;;33.53;10.82;;;8.20;67.60;;;;;;9183701;19;20031;-66
2022/03/27 07:53:37;;;;;;;23.77;9.82;;;8.20;67.70;;;;;;9176298;19;20021;-67
2022/03/27 07:56:42;;;;;;;30.95;11.18;;;8.30;67.70;;;;;;9173358;19;20070;-65
2022/03/27 07:59:48;;;;;;;36.40;10.82;;;8.30;67.60;;;;;;9174590;19;20357;-66
2022/03/27 08:02:53;;;;;;;29.15;10.98;;;8.40;67.70;;;;;;9171439;19;20014;-66
2022/03/27 08:06:02;;;;;;;28.95;10.85;;;8.50;67.70;;;;;;9175520;19;20007;-65
2022/03/27 08:09:08;;;;;;;25.35;9.75;;;8.60;67.80;;;;;;9173423;19;20062;-66
2022/03/27 08:12:17;;;;;;;28.40;10.82;;;8.70;67.80;;;;;;9173902;19;20022;-65
2022/03/27 08:15:22;;;;;;;27.38;10.05;;;8.80;67.70;;;;;;9172867;19;20010;-67
2022/03/27 08:18:27;;;;;;;25.35;8.88;;;8.90;67.60;;;;;;9173226;19;20007;-67
2022/03/27 08:21:35;;;;;;;25.02;8.77;;;9.00;67.60;;;;;;9169195;19;20439;-67
2022/03/27 08:24:40;;;;;;;33.03;9.38;;;9.10;67.70;;;;;;9175787;19;20566;-65
2022/03/27 08:27:43;;;;;;;28.58;9.68;;;9.30;67.70;;;;;;9173673;19;20029;-66
2022/03/27 08:30:48;;;;;;;28.30;9.18;;;9.40;67.70;;;;;;9172164;19;20091;-66
2022/03/27 08:33:53;;;;;;;27.90;9.27;;;9.60;67.70;;;;;;9175597;19;20010;-66
2022/03/27 08:37:02;;;;;;;28.88;10.50;;;9.80;67.70;;;;;;9175415;19;20664;-65
2022/03/27 08:40:08;;;;;;;22.90;9.88;;;10.00;67.60;;;;;;9173351;19;20017;-65
2022/03/27 08:43:15;;;;;;;27.80;10.32;;;10.20;67.50;;;;;;9172142;19;20010;-66
2022/03/27 08:46:20;;;;;;;27.60;9.57;;;10.50;67.40;;;;;;9174653;19;20014;-64
2022/03/27 08:49:37;;;;;;;20.02;8.68;;;10.70;67.20;;;;;;9182832;19;20018;-64
2022/03/27 08:52:57;;;;;;;34.03;11.20;;;11.00;67.00;;;;;;9182081;19;20033;-68
2022/03/27 08:56:06;;;;;;;29.05;9.50;;;11.20;66.90;;;;;;9182641;19;20041;-66
2022/03/27 08:59:13;;;;;;;21.63;9.27;;;11.50;66.70;;;;;;9178923;19;20094;-67
2022/03/27 09:02:19;;;;;;;25.65;9.00;;;11.70;66.40;;;;;;9181819;19;20344;-67
2022/03/27 09:05:24;;;;;;;25.23;8.95;;;11.90;66.20;;;;;;9182756;19;20074;-67
2022/03/27 09:08:32;;;;;;;29.92;8.05;;;12.10;65.90;;;;;;9181159;19;20030;-66
2022/03/27 09:11:39;;;;;;;21.50;8.50;;;12.30;65.70;;;;;;9180456;19;20344;-66
2022/03/27 09:14:45;;;;;;;26.63;8.27;;;12.50;65.50;;;;;;9182523;19;20525;-67
2022/03/27 09:18:01;;;;;;;20.02;7.75;;;12.70;65.30;;;;;;9186151;19;20106;-68
2022/03/27 09:21:06;;;;;;;26.88;8.07;;;12.90;65.00;;;;;;9182930;19;20017;-68
2022/03/27 09:24:14;;;;;;;27.17;8.40;;;13.00;64.80;;;;;;9186827;19;20392;-68
2022/03/27 09:27:30;;;;;;;24.40;8.07;;;13.10;64.60;;;;;;9185336;19;20364;-69
2022/03/27 09:30:37;;;;;;;22.55;8.18;;;13.30;64.50;;;;;;9183839;19;20368;-67
2022/03/27 09:33:50;;;;;;;24.23;8.55;;;13.40;64.30;;;;;;9181686;19;20396;-68
2022/03/27 09:36:55;;;;;;;30.37;9.40;;;13.50;64.20;;;;;;9185975;19;20036;-68
2022/03/27 09:40:03;;;;;;;23.65;8.63;;;13.70;64.10;;;;;;9187379;19;20015;-67
2022/03/27 09:43:15;;;;;;;17.95;6.63;;;13.80;63.80;;;;;;9186618;19;20511;-67
2022/03/27 09:46:20;;;;;;;20.20;7.30;;;13.90;63.60;;;;;;9185448;19;20455;-68
2022/03/27 09:49:28;;;;;;;22.55;8.00;;;14.10;63.40;;;;;;9185800;19;20017;-68
2022/03/27 09:52:33;;;;;;;23.77;7.88;;;14.10;63.20;;;;;;9185929;19;20037;-67
2022/03/27 09:55:41;;;;;;;21.20;6.95;;;14.30;63.10;;;;;;9186074;19;20018;-68
2022/03/27 09:58:48;;;;;;;22.80;7.88;;;14.50;63.00;;;;;;9183473;19;20029;-68
2022/03/27 10:01:53;;;;;;;21.52;7.05;;;14.60;62.90;;;;;;9185663;19;20017;-65
2022/03/27 10:05:07;;;;;;;20.33;6.90;;;14.70;62.60;;;;;;9185125;19;20021;-66
2022/03/27 10:08:12;;;;;;;23.83;6.67;;;14.90;62.30;;;;;;9180709;19;20025;-68
2022/03/27 10:11:21;;;;;;;15.38;6.07;;;15.00;62.20;;;;;;9183923;19;20309;-70
2022/03/27 10:14:27;;;;;;;20.35;6.43;;;15.10;62.00;;;;;;9181631;19;20014;-69
2022/03/27 10:17:34;;;;;;;20.08;6.07;;;15.20;61.80;;;;;;9182524;19;20006;-68
2022/03/27 10:20:41;;;;;;;20.63;5.78;;;15.30;62.20;;;;;;9180567;19;20010;-67
2022/03/27 10:23:49;;;;;;;19.25;5.80;;;15.40;61.40;;;;;;9184491;19;20033;-66
2022/03/27 10:27:02;;;;;;;22.88;5.50;;;15.50;61.10;;;;;;9178392;19;20134;-68
2022/03/27 10:30:09;;;;;;;15.95;5.80;;;15.60;60.90;;;;;;9179174;19;20037;-66
2022/03/27 10:33:15;;;;;;;17.35;5.88;;;15.60;60.80;;;;;;9178533;19;20018;-68
2022/03/27 10:36:25;;;;;;;22.48;6.47;;;15.70;60.70;;;;;;9177616;19;20022;-67
2022/03/27 10:39:36;;;;;;;16.08;5.65;;;15.80;60.60;;;;;;9177105;19;20535;-67
2022/03/27 10:42:54;;;;;;;17.50;5.82;;;15.90;60.50;;;;;;9179235;19;20021;-68
2022/03/27 10:46:15;;;;;;;24.02;6.78;;;16.00;60.40;;;;;;9178040;19;20090;-68
2022/03/27 10:49:20;;;;;;;19.75;5.95;;;16.10;60.00;;;;;;9176503;19;20025;-67
2022/03/27 10:52:26;;;;;;;19.98;5.60;;;16.10;60.00;;;;;;9179859;19;20110;-67
2022/03/27 10:55:39;;;;;;;17.08;6.03;;;16.10;59.90;;;;;;9178618;19;20038;-69
2022/03/27 10:58:46;;;;;;;24.45;6.65;;;16.30;59.60;;;;;;9178607;19;20018;-66
2022/03/27 11:01:53;;;;;;;22.70;5.45;;;16.30;59.50;;;;;;9177632;19;20620;-69
2022/03/27 11:04:58;;;;;;;21.08;5.97;;;16.40;59.50;;;;;;9175526;19;20019;-66
2022/03/27 11:08:33;;;;;;;20.17;6.18;;;16.40;59.40;;;;;;9177837;19;20025;-68
2022/03/27 11:12:09;;;;;;;18.83;5.63;;;16.50;59.10;;;;;;9177822;19;20063;-67
2022/03/27 11:15:17;;;;;;;21.77;6.60;;;16.60;59.10;;;;;;9178283;19;20023;-69
2022/03/27 11:18:37;;;;;;;21.25;6.07;;;16.70;59.20;;;;;;9178951;19;20014;-68
2022/03/27 11:21:49;;;;;;;21.35;5.60;;;16.80;59.50;;;;;;9177514;19;20010;-67
2022/03/27 11:25:24;;;;;;;19.90;5.70;;;16.80;58.80;;;;;;9177623;19;20018;-68
2022/03/27 11:28:46;;;;;;;23.67;5.70;;;16.90;58.70;;;;;;9176644;19;20021;-68
2022/03/27 11:32:11;;;;;;;17.23;5.63;;;17.00;58.70;;;;;;9178999;19;20014;-69
2022/03/27 11:35:17;;;;;;;15.18;5.18;;;17.10;58.50;;;;;;9176776;19;20019;-67
2022/03/27 11:38:24;;;;;;;21.33;5.90;;;17.20;58.60;;;;;;9176096;19;20019;-68
2022/03/27 11:41:31;;;;;;;23.25;5.15;;;17.20;58.40;;;;;;9177130;19;20014;-67
2022/03/27 11:47:59;;;;;;;26.40;6.47;;;17.30;58.30;;;;;;9176151;19;20082;-66
2022/03/27 11:51:16;;;;;;;30.65;6.78;;;17.40;58.20;;;;;;9182940;19;20014;-66
2022/03/27 11:54:23;;;;;;;22.55;6.07;;;17.50;58.00;;;;;;9179904;19;20037;-67
2022/03/27 11:57:28;;;;;;;19.65;5.57;;;17.50;58.10;;;;;;9181307;19;20014;-67
2022/03/27 12:00:36;;;;;;;18.10;5.55;;;17.60;58.00;;;;;;9182041;19;20136;-69
2022/03/27 12:03:44;;;;;;;21.60;5.93;;;17.70;57.90;;;;;;9183119;19;20357;-68
2022/03/27 12:06:56;;;;;;;18.70;6.30;;;17.70;57.70;;;;;;9180336;19;20019;-67
2022/03/27 12:10:02;;;;;;;24.77;6.22;;;17.80;57.70;;;;;;9180926;19;20479;-67
2022/03/27 12:13:08;;;;;;;21.75;6.00;;;17.90;57.60;;;;;;9182349;19;20026;-66
2022/03/27 12:16:20;;;;;;;18.55;5.75;;;18.00;57.50;;;;;;9181859;19;20010;-67
2022/03/27 12:19:28;;;;;;;22.15;6.22;;;18.00;57.20;;;;;;9176321;19;20015;-67
2022/03/27 12:22:34;;;;;;;18.48;6.03;;;18.10;57.30;;;;;;9187485;19;20015;-66
2022/03/27 12:25:40;;;;;;;19.48;6.22;;;18.10;57.10;;;;;;9191960;19;20426;-68
2022/03/27 12:32:04;;;;;;;24.23;7.13;;;18.30;56.90;;;;;;9191394;19;20017;-69
2022/03/27 12:35:13;;;;;;;20.40;6.03;;;18.30;56.80;;;;;;9187850;19;20022;-67
2022/03/27 12:38:31;;;;;;;22.05;6.28;;;18.30;56.70;;;;;;9188927;19;20011;-66
2022/03/27 12:41:42;;;;;;;17.05;6.13;;;18.30;56.40;;;;;;9187767;19;20017;-65
2022/03/27 12:44:53;;;;;;;24.98;6.45;;;18.40;56.50;;;;;;9187969;19;20030;-67
2022/03/27 12:48:16;;;;;;;20.58;5.28;;;18.40;56.40;;;;;;9189405;19;20129;-67
2022/03/27 12:51:24;;;;;;;30.52;6.82;;;18.40;56.40;;;;;;9187768;19;20018;-67
2022/03/27 12:54:29;;;;;;;26.40;6.57;;;18.40;56.20;;;;;;9188199;19;20011;-68
2022/03/27 12:57:50;;;;;;;23.30;6.45;;;18.40;56.10;;;;;;9188573;19;20017;-68
2022/03/27 13:01:10;;;;;;;25.55;6.40;;;18.40;55.90;;;;;;9188906;19;20502;-67
2022/03/27 13:04:16;;;;;;;26.40;7.15;;;18.40;55.90;;;;;;9188376;19;20023;-67
2022/03/27 13:07:53;;;;;;;25.67;6.50;;;18.40;56.10;;;;;;9187975;19;20406;-66
2022/03/27 13:11:00;;;;;;;32.15;6.15;;;18.30;55.80;;;;;;9188303;19;20025;-67
2022/03/27 13:14:05;;;;;;;24.58;5.32;;;18.30;56.00;;;;;;9185877;19;20337;-66
2022/03/27 13:17:16;;;;;;;31.52;6.22;;;18.30;55.90;;;;;;9186849;19;20011;-66
2022/03/27 13:20:36;;;;;;;24.02;6.22;;;18.30;55.70;;;;;;9184845;19;20368;-66
2022/03/27 13:23:49;;;;;;;33.50;8.02;;;18.30;55.50;;;;;;9187252;19;20026;-67
2022/03/27 13:26:57;;;;;;;21.33;6.35;;;18.30;55.70;;;;;;9189027;19;20349;-65
2022/03/27 13:30:02;;;;;;;28.00;6.93;;;18.20;55.70;;;;;;9187317;19;20778;-67
2022/03/27 13:33:08;;;;;;;38.05;7.57;;;18.20;55.70;;;;;;9185898;19;20011;-65
2022/03/27 13:36:13;;;;;;;32.67;6.88;;;18.20;55.70;;;;;;9187487;19;20340;-65
2022/03/27 13:39:21;;;;;;;26.40;5.82;;;18.20;55.70;;;;;;9184874;19;20038;-66
2022/03/27 13:45:44;;;;;;;30.40;6.53;;;18.10;55.70;;;;;;9188464;19;20014;-68
2022/03/27 13:48:49;;;;;;;33.63;7.65;;;18.10;55.70;;;;;;9187068;19;20017;-67
2022/03/27 13:51:54;;;;;;;32.60;7.03;;;18.10;55.60;;;;;;9188596;19;20061;-65
2022/03/27 13:55:02;;;;;;;27.13;6.45;;;18.10;55.60;;;;;;9184632;19;20015;-65
2022/03/27 13:58:07;;;;;;;29.05;7.25;;;18.10;55.50;;;;;;9185567;19;20013;-67
2022/03/27 14:01:12;;;;;;;33.10;7.20;;;18.10;55.60;;;;;;9186164;19;20018;-66
2022/03/27 14:04:18;;;;;;;25.42;7.10;;;18.10;55.60;;;;;;9185943;19;20359;-66
2022/03/27 14:07:24;;;;;;;32.58;6.90;;;18.10;55.50;;;;;;9185636;19;20014;-67
2022/03/27 14:10:32;;;;;;;21.50;5.38;;;18.10;55.40;;;;;;9185909;19;20145;-67
2022/03/27 14:13:37;;;;;;;26.30;6.15;;;18.10;55.40;;;;;;9186368;19;20015;-68
2022/03/27 14:16:43;;;;;;;23.55;5.65;;;18.10;55.40;;;;;;9183329;19;20022;-69
2022/03/27 14:19:48;;;;;;;21.33;5.45;;;18.00;55.30;;;;;;9176218;19;20568;-65
2022/03/27 14:22:53;;;;;;;33.75;6.00;;;18.10;55.30;;;;;;9179259;19;20017;-67
2022/03/27 14:26:04;;;;;;;31.30;5.40;;;18.00;55.30;;;;;;9178246;19;20036;-66
2022/03/27 14:29:09;;;;;;;26.67;6.55;;;18.10;55.20;;;;;;9178396;19;20352;-68
2022/03/27 14:32:15;;;;;;;34.08;6.55;;;18.10;55.20;;;;;;9181314;19;20479;-68
2022/03/27 14:35:20;;;;;;;24.50;6.25;;;18.10;55.20;;;;;;9182856;19;20491;-66
2022/03/27 14:38:25;;;;;;;27.58;5.47;;;18.10;55.20;;;;;;9185187;19;20033;-66
2022/03/27 14:41:33;;;;;;;22.83;5.38;;;18.10;55.10;;;;;;9186303;19;20011;-67
2022/03/27 14:44:38;;;;;;;31.23;6.45;;;18.10;55.10;;;;;;9181285;19;20452;-67
2022/03/27 14:47:44;;;;;;;17.30;5.03;;;18.00;55.00;;;;;;9185027;19;20014;-67
2022/03/27 14:50:49;;;;;;;20.80;6.43;;;18.00;55.00;;;;;;9184670;19;20029;-66
2022/03/27 14:57:15;;;;;;;24.02;5.75;;;18.00;54.90;;;;;;9182131;19;20006;-67
2022/03/27 15:00:20;;;;;;;16.13;4.43;;;18.00;55.00;;;;;;9179398;19;20014;-68
2022/03/27 15:03:26;;;;;;;30.55;5.72;;;18.00;55.00;;;;;;9177153;19;20022;-67
2022/03/27 15:06:31;;;;;;;19.67;4.95;;;17.90;54.90;;;;;;9178723;19;20051;-66
2022/03/27 15:09:36;;;;;;;23.63;5.80;;;17.90;54.90;;;;;;9179532;19;20014;-67
2022/03/27 15:12:44;;;;;;;17.50;5.15;;;17.90;54.80;;;;;;9180521;19;20026;-66
2022/03/27 15:15:49;;;;;;;21.17;5.57;;;17.80;54.70;;;;;;9175493;19;20011;-66
2022/03/27 15:18:54;;;;;;;24.48;5.13;;;17.80;54.70;;;;;;9176390;19;20010;-67
2022/03/27 15:22:00;;;;;;;21.52;5.20;;;17.80;54.70;;;;;;9180736;19;20011;-68
2022/03/27 15:25:06;;;;;;;23.83;5.10;;;17.70;54.60;;;;;;9181173;19;20044;-66
2022/03/27 15:28:14;;;;;;;27.30;5.43;;;17.70;54.60;;;;;;9181819;19;20010;-66
2022/03/27 15:31:22;;;;;;;17.88;5.32;;;17.60;54.50;;;;;;9179678;19;20357;-68
2022/03/27 15:34:31;;;;;;;26.58;6.18;;;17.60;54.60;;;;;;9181445;19;20359;-67
2022/03/27 15:37:37;;;;;;;23.45;5.88;;;17.60;54.60;;;;;;9184147;19;20006;-66
2022/03/27 15:40:42;;;;;;;26.45;5.55;;;17.60;54.60;;;;;;9183328;19;20022;-66
2022/03/27 15:43:49;;;;;;;21.83;6.07;;;17.60;54.60;;;;;;9183111;19;20731;-68
2022/03/27 15:46:54;;;;;;;20.95;5.95;;;17.60;54.50;;;;;;9183438;19;20006;-68
2022/03/27 15:49:59;;;;;;;26.05;5.50;;;17.50;54.40;;;;;;9182760;19;20471;-69
2022/03/27 15:53:05;;;;;;;19.15;5.53;;;17.50;54.50;;;;;;9181782;19;20479;-67
2022/03/27 15:56:11;;;;;;;20.65;5.80;;;17.50;54.50;;;;;;9180757;19;20029;-69
2022/03/27 15:59:18;;;;;;;22.70;5.78;;;17.40;54.40;;;;;;9183213;19;20014;-67
2022/03/27 16:02:24;;;;;;;27.58;5.97;;;17.40;54.40;;;;;;9182576;19;20022;-67
2022/03/27 16:05:30;;;;;;;19.50;4.68;;;17.30;54.40;;;;;;9180935;19;20032;-71
2022/03/27 16:08:38;;;;;;;26.60;5.63;;;17.30;54.50;;;;;;9178444;19;20323;-70
2022/03/27 16:11:43;;;;;;;19.80;4.80;;;17.30;54.40;;;;;;9180981;19;20021;-69
2022/03/27 16:14:50;;;;;;;21.48;4.93;;;17.20;54.30;;;;;;9180093;19;20394;-70
2022/03/27 16:17:55;;;;;;;24.58;4.78;;;17.10;54.40;;;;;;9180871;19;20018;-68
2022/03/27 16:21:01;;;;;;;21.52;5.35;;;17.00;54.40;;;;;;9178095;19;20023;-70
2022/03/27 16:24:07;;;;;;;14.50;4.70;;;17.00;54.40;;;;;;9182511;19;20018;-70
2022/03/27 16:27:15;;;;;;;22.30;5.05;;;16.90;54.40;;;;;;9180575;19;20023;-69